Time;durP1;ratioP1;P1;durP2;ratioP2;P2;SDS_P1;SDS_P2;PMS_P1;PMS_P2;Temp;Humidity;BMP_temperature;BMP_pressure;BME280_temperature;BME280_humidity;BME280_pressure;Samples;Min_cycle;Max_cycle;Signal;HPM_P1;HPM_P2
2024/01/22 00:02:10;;;;;;;12.60;8.33;;;3.90;81.70;;;;;;5128785;28;20187;-70
2024/01/22 00:04:38;;;;;;;14.50;8.73;;;4.10;83.30;;;;;;5129286;28;20218;-71
2024/01/22 00:07:07;;;;;;;13.63;8.27;;;4.00;82.10;;;;;;5129130;28;20192;-71
2024/01/22 00:09:35;;;;;;;13.83;8.00;;;4.00;81.60;;;;;;5129225;28;20215;-69
2024/01/22 00:12:04;;;;;;;13.20;8.57;;;3.90;83.10;;;;;;5129029;28;20215;-71
2024/01/22 00:14:33;;;;;;;11.73;8.13;;;3.90;84.10;;;;;;5128876;28;20225;-70
2024/01/22 00:17:01;;;;;;;11.27;8.47;;;3.80;85.10;;;;;;5129228;28;20241;-71
2024/01/22 00:19:30;;;;;;;13.23;8.67;;;3.80;85.60;;;;;;5129478;28;20187;-65
2024/01/22 00:21:59;;;;;;;11.33;8.80;;;3.70;85.30;;;;;;5129399;28;20524;-66
2024/01/22 00:24:27;;;;;;;13.97;8.33;;;3.60;86.40;;;;;;5128967;28;20987;-65
2024/01/22 00:26:56;;;;;;;13.60;8.30;;;3.70;87.20;;;;;;5128963;27;20656;-63
2024/01/22 00:29:24;;;;;;;10.93;8.57;;;3.70;87.90;;;;;;5114074;27;20578;-69
2024/01/22 00:31:52;;;;;;;14.53;8.70;;;3.60;87.30;;;;;;5132569;27;20222;-67
2024/01/22 00:34:21;;;;;;;15.53;8.47;;;3.60;88.10;;;;;;5132451;27;20198;-67
2024/01/22 00:36:50;;;;;;;11.97;8.33;;;3.70;88.10;;;;;;5132501;27;20199;-64
2024/01/22 00:39:18;;;;;;;12.80;7.93;;;3.60;88.40;;;;;;5132121;27;20234;-67
2024/01/22 00:41:47;;;;;;;10.63;7.83;;;3.70;88.00;;;;;;5132467;27;20203;-72
2024/01/22 00:44:15;;;;;;;11.80;8.27;;;3.80;87.70;;;;;;5132362;27;20617;-71
2024/01/22 00:46:44;;;;;;;11.90;9.00;;;3.90;86.20;;;;;;5132554;27;20229;-69
2024/01/22 00:49:12;;;;;;;12.37;9.00;;;3.70;87.00;;;;;;5132525;27;20549;-63
2024/01/22 00:51:40;;;;;;;9.80;7.27;;;3.50;87.10;;;;;;5132308;27;20256;-70
2024/01/22 00:54:10;;;;;;;9.97;7.67;;;3.60;87.40;;;;;;5132347;27;20289;-71
2024/01/22 00:56:39;;;;;;;11.63;7.93;;;3.60;86.60;;;;;;5132153;27;20205;-70
2024/01/22 00:59:07;;;;;;;12.20;8.07;;;3.50;85.70;;;;;;5132040;27;20677;-69
2024/01/22 01:01:35;;;;;;;11.87;8.20;;;3.60;85.10;;;;;;5132067;27;20273;-71
2024/01/22 01:04:04;;;;;;;12.07;7.47;;;3.60;85.50;;;;;;5131961;27;20203;-67
2024/01/22 01:06:32;;;;;;;9.53;7.57;;;3.60;84.80;;;;;;5131715;27;20224;-61
2024/01/22 01:09:02;;;;;;;10.73;8.43;;;3.60;86.10;;;;;;5131739;27;20205;-68
2024/01/22 01:11:31;;;;;;;11.73;7.53;;;3.60;84.90;;;;;;5131652;27;20211;-70
2024/01/22 01:14:00;;;;;;;9.93;7.80;;;3.60;85.10;;;;;;5131710;27;20191;-68
2024/01/22 01:16:28;;;;;;;10.83;7.63;;;3.60;85.80;;;;;;5131852;27;20206;-66
2024/01/22 01:18:57;;;;;;;11.73;7.57;;;3.60;87.00;;;;;;5131586;27;20660;-63
2024/01/22 01:21:25;;;;;;;10.80;7.53;;;3.60;86.90;;;;;;5131320;27;20214;-66
2024/01/22 01:23:53;;;;;;;11.60;7.13;;;3.70;87.10;;;;;;5131577;27;20656;-62
2024/01/22 01:26:22;;;;;;;12.57;7.90;;;3.60;88.20;;;;;;5131623;27;20198;-63
2024/01/22 01:28:51;;;;;;;12.43;7.67;;;3.80;89.00;;;;;;5131333;27;20213;-66
2024/01/22 01:31:21;;;;;;;9.50;7.23;;;3.70;87.60;;;;;;5131322;27;20642;-68
2024/01/22 01:33:50;;;;;;;9.20;7.40;;;3.70;87.70;;;;;;5131459;27;20216;-70
2024/01/22 01:36:18;;;;;;;10.93;7.43;;;3.70;87.30;;;;;;5131051;27;20194;-67
2024/01/22 01:38:46;;;;;;;12.73;7.27;;;3.70;86.80;;;;;;5130375;27;20232;-68
2024/01/22 01:41:15;;;;;;;8.30;6.77;;;3.60;88.00;;;;;;5131291;27;20191;-64
2024/01/22 01:43:43;;;;;;;11.07;7.57;;;3.80;87.40;;;;;;5131367;27;20187;-63
2024/01/22 01:46:13;;;;;;;9.53;6.93;;;3.70;86.60;;;;;;5131476;27;20207;-69
2024/01/22 01:48:42;;;;;;;13.97;7.97;;;3.70;87.10;;;;;;5131178;27;20618;-68
2024/01/22 01:51:10;;;;;;;12.20;7.90;;;3.70;87.30;;;;;;5130781;27;20613;-64
2024/01/22 01:53:39;;;;;;;10.80;7.47;;;3.80;85.50;;;;;;5131273;27;20202;-70
2024/01/22 01:56:08;;;;;;;12.27;8.13;;;3.70;87.10;;;;;;5131086;27;20195;-70
2024/01/22 01:58:37;;;;;;;10.53;6.67;;;3.70;86.20;;;;;;5131145;27;20667;-64
2024/01/22 02:01:07;;;;;;;9.17;7.30;;;3.60;86.60;;;;;;5130938;27;20201;-65
2024/01/22 02:03:37;;;;;;;11.07;7.00;;;3.60;88.00;;;;;;5112201;27;20199;-63
2024/01/22 02:06:06;;;;;;;10.67;7.60;;;3.70;88.00;;;;;;5130666;27;20234;-72
2024/01/22 02:08:34;;;;;;;13.00;7.67;;;3.90;86.20;;;;;;5130877;27;20191;-63
2024/01/22 02:11:02;;;;;;;11.90;7.60;;;3.80;84.60;;;;;;5130974;27;20683;-70
2024/01/22 02:13:31;;;;;;;11.10;8.20;;;3.70;85.50;;;;;;5130996;27;20595;-65
2024/01/22 02:15:59;;;;;;;8.83;7.23;;;3.60;86.60;;;;;;5130858;27;20568;-69
2024/01/22 02:18:27;;;;;;;12.20;7.33;;;3.60;86.80;;;;;;5130638;27;20190;-65
2024/01/22 02:20:57;;;;;;;10.57;6.73;;;3.80;86.30;;;;;;5130641;27;20179;-63
2024/01/22 02:23:27;;;;;;;9.40;7.37;;;3.90;84.10;;;;;;5130661;27;20195;-64
2024/01/22 02:25:55;;;;;;;10.37;6.97;;;3.80;85.60;;;;;;5130818;27;20585;-65
2024/01/22 02:28:23;;;;;;;9.57;7.23;;;3.90;82.80;;;;;;5130786;27;20546;-64
2024/01/22 02:30:52;;;;;;;11.10;7.63;;;3.90;82.90;;;;;;5130641;27;20587;-69
2024/01/22 02:33:20;;;;;;;11.83;7.27;;;3.90;83.70;;;;;;5130323;27;20271;-68
2024/01/22 02:35:48;;;;;;;9.13;6.83;;;4.00;83.70;;;;;;5130155;27;20212;-64
2024/01/22 02:38:17;;;;;;;13.63;7.40;;;3.90;83.00;;;;;;5129904;27;20777;-67
2024/01/22 02:40:46;;;;;;;10.73;7.20;;;3.70;83.50;;;;;;5130324;27;20195;-63
2024/01/22 02:43:15;;;;;;;9.87;7.60;;;3.70;83.00;;;;;;5130429;27;20611;-62
2024/01/22 02:45:43;;;;;;;10.17;7.37;;;3.80;83.60;;;;;;5130234;27;20252;-71
2024/01/22 02:48:11;;;;;;;9.07;6.90;;;3.80;82.00;;;;;;5130229;27;20973;-64
2024/01/22 02:50:40;;;;;;;9.77;6.73;;;3.90;81.70;;;;;;5129692;27;21052;-65
2024/01/22 02:53:08;;;;;;;11.13;7.37;;;3.80;80.30;;;;;;5129977;27;20225;-69
2024/01/22 02:55:36;;;;;;;10.70;7.47;;;3.80;80.70;;;;;;5130125;27;20202;-67
2024/01/22 02:58:06;;;;;;;10.87;7.43;;;3.80;81.80;;;;;;5129961;27;20187;-64
2024/01/22 03:00:35;;;;;;;10.00;6.83;;;3.90;80.60;;;;;;5129795;27;20202;-66
2024/01/22 03:03:03;;;;;;;10.03;7.50;;;3.90;80.00;;;;;;5129787;27;20193;-63
2024/01/22 03:05:32;;;;;;;7.70;6.73;;;3.80;81.20;;;;;;5129590;27;20254;-63
2024/01/22 03:08:00;;;;;;;9.93;6.63;;;3.70;81.60;;;;;;5129736;27;20194;-68
2024/01/22 03:10:28;;;;;;;9.87;6.80;;;3.70;83.60;;;;;;5129719;27;20204;-63
2024/01/22 03:12:56;;;;;;;10.37;7.50;;;3.90;81.20;;;;;;5129326;27;20219;-66
2024/01/22 03:15:26;;;;;;;10.57;7.90;;;3.70;81.60;;;;;;5129442;27;20198;-68
2024/01/22 03:17:54;;;;;;;8.67;7.83;;;3.80;81.60;;;;;;5129436;27;20190;-69
2024/01/22 03:20:23;;;;;;;11.03;7.17;;;3.70;81.20;;;;;;5129567;28;20218;-67
2024/01/22 03:22:52;;;;;;;10.67;7.00;;;3.60;82.60;;;;;;5129551;28;20236;-65
2024/01/22 03:25:20;;;;;;;9.30;6.43;;;3.50;84.40;;;;;;5129546;28;20725;-67
2024/01/22 03:27:48;;;;;;;9.57;6.63;;;3.70;84.50;;;;;;5129238;28;20195;-66
2024/01/22 03:30:17;;;;;;;7.63;6.83;;;3.70;83.30;;;;;;5129564;28;20209;-68
2024/01/22 03:32:46;;;;;;;8.93;6.27;;;3.60;84.10;;;;;;5129356;28;20221;-69
2024/01/22 03:35:15;;;;;;;10.07;7.40;;;3.60;84.60;;;;;;5129481;28;20653;-67
2024/01/22 03:37:43;;;;;;;10.30;7.83;;;3.50;85.50;;;;;;5128988;28;20233;-65
2024/01/22 03:40:12;;;;;;;9.83;7.53;;;3.50;87.10;;;;;;5129369;28;20578;-66
2024/01/22 03:42:40;;;;;;;9.87;7.00;;;3.70;86.10;;;;;;5129380;28;20187;-63
2024/01/22 03:45:09;;;;;;;9.77;6.83;;;3.50;86.70;;;;;;5129651;28;20195;-63
2024/01/22 03:47:37;;;;;;;12.70;8.70;;;3.50;88.50;;;;;;5129485;28;20194;-67
2024/01/22 03:50:08;;;;;;;10.97;7.33;;;3.60;88.30;;;;;;5129404;28;20222;-68
2024/01/22 03:52:36;;;;;;;7.97;6.33;;;3.60;89.90;;;;;;5128892;28;20271;-63
2024/01/22 03:55:06;;;;;;;8.70;7.07;;;3.50;90.10;;;;;;5129237;28;20571;-66
2024/01/22 03:57:35;;;;;;;9.20;7.50;;;3.50;90.50;;;;;;5129115;28;20199;-67
2024/01/22 04:00:03;;;;;;;7.53;6.73;;;3.50;90.80;;;;;;5129282;28;20202;-65
2024/01/22 04:02:34;;;;;;;8.43;6.83;;;3.50;91.70;;;;;;5130469;27;20200;-67
2024/01/22 04:05:03;;;;;;;10.57;7.03;;;3.60;91.50;;;;;;5133484;27;20229;-69
2024/01/22 04:07:32;;;;;;;12.17;7.43;;;3.50;92.00;;;;;;5133238;27;20206;-70
2024/01/22 04:10:00;;;;;;;10.87;6.80;;;3.60;92.20;;;;;;5133466;27;20653;-74
2024/01/22 04:12:29;;;;;;;9.27;6.60;;;3.60;92.40;;;;;;5133324;27;20310;-71
2024/01/22 04:14:57;;;;;;;9.93;6.83;;;3.60;92.50;;;;;;5133078;27;20189;-70
2024/01/22 04:17:25;;;;;;;8.40;6.57;;;3.60;93.20;;;;;;5132998;27;20197;-70
2024/01/22 04:19:54;;;;;;;14.77;6.87;;;3.70;92.90;;;;;;5132997;27;20566;-65
2024/01/22 04:22:22;;;;;;;8.97;6.80;;;3.90;92.50;;;;;;5132456;27;20218;-68
2024/01/22 04:24:52;;;;;;;8.83;6.63;;;4.00;91.50;;;;;;5132726;27;20206;-68
2024/01/22 04:27:20;;;;;;;9.03;6.90;;;3.90;92.10;;;;;;5132532;27;20187;-64
2024/01/22 04:29:48;;;;;;;10.87;7.53;;;3.90;92.90;;;;;;5132640;27;20629;-65
2024/01/22 04:32:17;;;;;;;9.93;7.63;;;3.80;92.40;;;;;;5132502;27;20209;-62
2024/01/22 04:34:46;;;;;;;9.97;7.40;;;3.80;93.10;;;;;;5132213;27;20195;-75
2024/01/22 04:37:15;;;;;;;11.67;7.30;;;3.80;93.40;;;;;;5131941;27;20554;-68
2024/01/22 04:39:43;;;;;;;10.93;7.53;;;3.80;93.60;;;;;;5132419;27;20194;-70
2024/01/22 04:42:18;;;;;;;12.77;7.67;;;3.90;93.80;;;;;;5132315;27;20201;-66
2024/01/22 04:44:46;;;;;;;12.30;7.63;;;3.80;93.60;;;;;;5131371;27;20204;-68
2024/01/22 04:47:14;;;;;;;7.40;6.57;;;3.80;94.00;;;;;;5131506;27;20262;-68
2024/01/22 04:49:43;;;;;;;10.23;7.47;;;3.70;94.00;;;;;;5131462;27;20249;-65
2024/01/22 04:52:11;;;;;;;12.33;7.83;;;3.70;94.40;;;;;;5131584;27;20198;-64
2024/01/22 04:54:39;;;;;;;11.13;7.93;;;3.70;94.20;;;;;;5131823;27;20577;-69
2024/01/22 04:57:08;;;;;;;12.30;6.63;;;3.80;94.70;;;;;;5131511;27;20202;-65
2024/01/22 04:59:37;;;;;;;13.00;8.10;;;3.80;93.90;;;;;;5131435;27;20685;-65
2024/01/22 05:02:05;;;;;;;11.97;8.53;;;3.80;94.20;;;;;;5131196;27;20209;-65
2024/01/22 05:04:34;;;;;;;10.63;7.20;;;3.80;94.80;;;;;;5131371;27;20264;-62
2024/01/22 05:07:02;;;;;;;12.07;8.50;;;3.70;95.10;;;;;;5131795;27;20669;-64
2024/01/22 05:09:30;;;;;;;12.50;8.03;;;3.70;95.00;;;;;;5131919;27;20195;-64
2024/01/22 05:11:59;;;;;;;12.30;8.13;;;3.80;95.00;;;;;;5131741;27;20655;-62
2024/01/22 05:14:28;;;;;;;16.20;8.50;;;3.80;94.80;;;;;;5130681;27;20237;-64
2024/01/22 05:16:57;;;;;;;10.77;8.10;;;3.90;94.40;;;;;;5131859;27;20200;-65
2024/01/22 05:19:26;;;;;;;10.03;7.73;;;3.80;94.70;;;;;;5131844;27;20198;-62
2024/01/22 05:21:54;;;;;;;11.13;8.23;;;3.80;94.80;;;;;;5131719;27;20199;-63
2024/01/22 05:24:22;;;;;;;9.83;7.63;;;3.80;95.30;;;;;;5131609;27;20197;-64
2024/01/22 05:26:50;;;;;;;10.00;7.93;;;3.80;95.00;;;;;;5131650;27;20191;-64
2024/01/22 05:29:19;;;;;;;13.03;7.27;;;3.90;95.20;;;;;;5131509;27;20252;-64
2024/01/22 05:31:47;;;;;;;10.40;8.13;;;3.90;95.50;;;;;;5131428;27;20197;-64
2024/01/22 05:34:17;;;;;;;10.13;8.50;;;4.00;95.20;;;;;;5131217;27;20228;-64
2024/01/22 05:36:46;;;;;;;13.93;8.13;;;3.90;95.40;;;;;;5130885;27;20297;-64
2024/01/22 05:39:14;;;;;;;12.00;8.80;;;3.90;95.80;;;;;;5130782;27;20271;-65
2024/01/22 05:41:42;;;;;;;10.40;7.93;;;3.90;96.20;;;;;;5131232;27;20191;-64
2024/01/22 05:44:11;;;;;;;15.07;9.00;;;3.90;96.40;;;;;;5131132;27;20193;-64
2024/01/22 05:46:39;;;;;;;12.20;7.73;;;4.00;96.50;;;;;;5131073;27;20197;-63
2024/01/22 05:49:07;;;;;;;11.77;8.40;;;4.00;96.60;;;;;;5130923;27;20190;-63
2024/01/22 05:51:37;;;;;;;12.73;8.40;;;4.00;96.40;;;;;;5131070;27;20235;-63
2024/01/22 05:54:05;;;;;;;11.77;7.97;;;4.00;96.50;;;;;;5130846;27;20632;-64
2024/01/22 05:56:34;;;;;;;10.43;7.27;;;4.10;96.80;;;;;;5131044;27;20240;-64
2024/01/22 05:59:03;;;;;;;10.33;7.80;;;4.10;96.70;;;;;;5130882;27;20201;-65
2024/01/22 06:01:32;;;;;;;14.30;8.37;;;4.10;97.20;;;;;;5131132;27;20200;-63
2024/01/22 06:04:00;;;;;;;12.97;8.40;;;4.10;97.10;;;;;;5131047;27;20199;-63
2024/01/22 06:06:28;;;;;;;9.63;8.23;;;4.20;97.40;;;;;;5130687;27;20199;-66
2024/01/22 06:08:58;;;;;;;12.30;7.83;;;4.10;97.80;;;;;;5130285;27;20274;-65
2024/01/22 06:11:27;;;;;;;10.50;8.23;;;4.20;98.30;;;;;;5130753;27;20626;-63
2024/01/22 06:13:56;;;;;;;13.20;8.30;;;4.20;98.80;;;;;;5130499;27;20221;-64
2024/01/22 06:16:28;;;;;;;11.93;7.90;;;4.30;97.80;;;;;;5130793;27;20226;-64
2024/01/22 06:18:57;;;;;;;12.90;8.33;;;4.40;98.20;;;;;;5130679;27;20188;-63
2024/01/22 06:21:26;;;;;;;12.50;8.10;;;4.50;97.60;;;;;;5130640;27;20203;-64
2024/01/22 06:23:54;;;;;;;10.63;8.43;;;4.50;97.20;;;;;;5130512;27;20663;-64
2024/01/22 06:26:24;;;;;;;9.37;7.83;;;4.40;97.40;;;;;;5130119;27;20199;-63
2024/01/22 06:28:52;;;;;;;12.17;9.00;;;4.50;97.70;;;;;;5130680;27;20225;-63
2024/01/22 06:31:21;;;;;;;8.90;7.23;;;4.40;97.20;;;;;;5130270;27;20198;-63
2024/01/22 06:33:50;;;;;;;10.77;7.70;;;4.40;98.00;;;;;;5130163;27;20207;-64
2024/01/22 06:36:18;;;;;;;11.97;8.20;;;4.30;99.00;;;;;;5130256;27;20198;-64
2024/01/22 06:38:47;;;;;;;12.23;7.93;;;4.30;99.30;;;;;;5129503;27;20786;-65
2024/01/22 06:41:18;;;;;;;11.50;8.30;;;4.30;99.70;;;;;;5129963;27;20235;-65
2024/01/22 06:43:48;;;;;;;11.80;7.37;;;4.40;99.90;;;;;;5130112;27;20787;-64
2024/01/22 06:46:16;;;;;;;12.17;8.30;;;4.50;99.70;;;;;;5129718;27;20300;-63
2024/01/22 06:48:45;;;;;;;9.33;7.57;;;4.40;99.60;;;;;;5116761;27;20195;-63
2024/01/22 06:51:13;;;;;;;9.93;8.13;;;4.50;99.70;;;;;;5129302;27;20199;-63
2024/01/22 06:53:42;;;;;;;10.83;8.07;;;4.40;99.90;;;;;;5129151;27;20234;-64
2024/01/22 06:56:10;;;;;;;10.50;7.97;;;4.50;99.70;;;;;;5129812;27;20231;-62
2024/01/22 06:58:39;;;;;;;11.20;7.53;;;4.50;99.80;;;;;;5127550;27;20200;-63
2024/01/22 07:01:09;;;;;;;11.70;7.83;;;4.50;99.60;;;;;;5109037;28;20202;-64
2024/01/22 07:03:37;;;;;;;13.50;7.67;;;4.60;99.80;;;;;;5109085;28;20233;-65
2024/01/22 07:06:06;;;;;;;10.97;7.90;;;4.60;99.80;;;;;;5109097;28;20551;-63
2024/01/22 07:08:34;;;;;;;10.07;7.27;;;4.50;99.90;;;;;;5108749;28;20235;-64
2024/01/22 07:11:02;;;;;;;10.97;7.80;;;4.40;99.90;;;;;;5109252;28;20207;-64
2024/01/22 07:13:30;;;;;;;10.33;8.67;;;4.50;99.90;;;;;;5109108;28;20187;-65
2024/01/22 07:16:00;;;;;;;10.57;7.33;;;4.50;99.90;;;;;;5108793;28;20275;-65
2024/01/22 07:18:30;;;;;;;11.40;7.57;;;4.50;99.90;;;;;;5108851;28;20215;-64
2024/01/22 07:21:00;;;;;;;10.40;7.40;;;4.50;99.90;;;;;;5108629;28;20583;-66
2024/01/22 07:23:29;;;;;;;12.47;8.20;;;4.50;99.90;;;;;;5108812;28;20234;-65
2024/01/22 07:25:57;;;;;;;11.73;7.70;;;4.50;99.90;;;;;;5108868;28;20191;-63
2024/01/22 07:28:25;;;;;;;9.37;7.17;;;4.50;99.90;;;;;;5108911;28;20258;-66
2024/01/22 07:30:54;;;;;;;7.87;6.90;;;4.60;99.90;;;;;;5108862;28;20198;-64
2024/01/22 07:33:22;;;;;;;14.13;8.40;;;4.60;99.90;;;;;;5108733;28;20276;-65
2024/01/22 07:35:52;;;;;;;10.37;7.70;;;4.50;99.90;;;;;;5108702;28;20308;-65
2024/01/22 07:38:20;;;;;;;10.47;8.33;;;4.50;99.90;;;;;;5110601;28;20276;-66
2024/01/22 07:40:48;;;;;;;10.57;7.63;;;4.60;99.90;;;;;;5112854;28;20200;-64
2024/01/22 07:43:18;;;;;;;13.23;7.87;;;4.60;99.90;;;;;;5112728;28;20221;-66
2024/01/22 07:45:46;;;;;;;9.73;8.50;;;4.50;99.90;;;;;;5112880;28;20195;-64
2024/01/22 07:48:14;;;;;;;9.47;7.23;;;4.60;99.90;;;;;;5130025;27;20203;-63
2024/01/22 07:50:43;;;;;;;11.23;7.53;;;4.70;99.90;;;;;;5133233;27;20220;-64
2024/01/22 07:53:13;;;;;;;10.77;7.70;;;4.70;99.90;;;;;;5133122;27;20302;-64
2024/01/22 07:55:41;;;;;;;10.70;7.67;;;4.80;99.90;;;;;;5133180;27;20275;-65
2024/01/22 07:58:09;;;;;;;9.23;7.53;;;4.80;99.90;;;;;;5114165;27;20276;-64
2024/01/22 08:00:39;;;;;;;11.03;8.13;;;4.80;99.90;;;;;;5133131;27;20243;-63
2024/01/22 08:03:09;;;;;;;9.27;7.57;;;4.90;99.90;;;;;;5133061;27;20306;-63
2024/01/22 08:05:37;;;;;;;8.90;7.17;;;4.90;99.90;;;;;;5133343;27;20244;-66
2024/01/22 08:08:09;;;;;;;11.50;7.63;;;4.80;99.90;;;;;;5115723;27;20623;-65
2024/01/22 08:10:39;;;;;;;9.80;6.80;;;4.90;99.90;;;;;;5132914;27;20199;-66
2024/01/22 08:13:07;;;;;;;10.33;7.53;;;4.80;99.90;;;;;;5132999;27;20567;-65
2024/01/22 08:15:35;;;;;;;10.07;6.87;;;4.80;99.90;;;;;;5133060;27;20214;-64
2024/01/22 08:18:04;;;;;;;11.67;7.77;;;5.00;99.90;;;;;;5133172;27;21000;-65
2024/01/22 08:20:32;;;;;;;11.77;7.90;;;5.00;99.90;;;;;;5133155;27;20580;-66
2024/01/22 08:23:03;;;;;;;11.63;8.13;;;5.00;99.90;;;;;;5132910;27;20204;-66
2024/01/22 08:25:31;;;;;;;10.70;7.37;;;4.90;99.90;;;;;;5132951;27;20198;-64
2024/01/22 08:28:02;;;;;;;10.47;8.17;;;4.80;99.90;;;;;;5132727;27;20222;-64
2024/01/22 08:30:30;;;;;;;10.57;7.70;;;4.80;99.90;;;;;;5132554;27;20213;-65
2024/01/22 08:32:59;;;;;;;11.40;7.50;;;4.90;99.90;;;;;;5132731;27;20565;-64
2024/01/22 08:35:27;;;;;;;9.53;5.93;;;4.90;99.90;;;;;;5132413;27;20220;-65
2024/01/22 08:37:55;;;;;;;12.50;7.83;;;4.90;99.90;;;;;;5115384;27;20224;-65
2024/01/22 08:40:25;;;;;;;10.60;7.40;;;4.90;99.90;;;;;;5115872;27;20195;-66
2024/01/22 08:42:54;;;;;;;11.63;7.87;;;4.80;99.90;;;;;;5132319;27;20202;-67
2024/01/22 08:45:24;;;;;;;16.53;10.77;;;4.80;99.90;;;;;;5132455;27;20195;-63
2024/01/22 08:47:53;;;;;;;11.43;7.43;;;4.80;99.90;;;;;;5132398;27;20222;-64
2024/01/22 08:50:22;;;;;;;10.47;7.77;;;4.80;99.90;;;;;;5132414;27;20187;-65
2024/01/22 08:52:52;;;;;;;15.77;10.90;;;4.60;99.90;;;;;;5132352;27;20202;-62
2024/01/22 08:55:22;;;;;;;10.33;7.53;;;4.70;99.90;;;;;;5132398;27;20304;-63
2024/01/22 08:57:53;;;;;;;13.33;7.23;;;4.60;99.90;;;;;;5132627;27;20585;-64
2024/01/22 09:00:23;;;;;;;17.43;11.70;;;4.40;99.90;;;;;;5120242;27;20205;-65
2024/01/22 09:02:55;;;;;;;28.27;17.03;;;4.40;99.90;;;;;;5111964;28;20280;-64
2024/01/22 09:05:23;;;;;;;14.93;9.27;;;4.30;99.90;;;;;;5111911;28;20195;-65
2024/01/22 09:07:52;;;;;;;11.93;8.37;;;4.20;99.90;;;;;;5096298;28;20201;-65
2024/01/22 09:10:23;;;;;;;13.47;8.90;;;4.20;99.90;;;;;;5094397;28;20204;-65
2024/01/22 09:12:51;;;;;;;11.90;9.03;;;4.40;99.90;;;;;;5111624;28;20188;-64
2024/01/22 09:15:19;;;;;;;12.30;8.50;;;4.30;99.90;;;;;;5111389;28;20211;-64
2024/01/22 09:17:48;;;;;;;10.57;8.70;;;4.20;99.90;;;;;;5111286;28;20187;-64
2024/01/22 09:20:18;;;;;;;10.80;8.57;;;4.20;99.90;;;;;;5111257;28;20740;-64
2024/01/22 09:22:48;;;;;;;11.20;8.03;;;4.40;99.90;;;;;;5111194;28;20613;-65
2024/01/22 09:25:19;;;;;;;12.63;8.07;;;4.40;99.90;;;;;;5127489;27;20206;-64
2024/01/22 09:27:47;;;;;;;11.13;7.57;;;4.40;99.90;;;;;;5131790;27;20813;-66
2024/01/22 09:30:16;;;;;;;12.00;8.63;;;4.40;99.90;;;;;;5131582;27;20225;-66
2024/01/22 09:32:47;;;;;;;14.30;10.20;;;4.40;99.90;;;;;;5113027;27;20244;-66
2024/01/22 09:35:15;;;;;;;16.77;11.50;;;4.50;99.90;;;;;;5131481;27;20205;-65
2024/01/22 09:37:47;;;;;;;10.63;8.20;;;4.60;99.90;;;;;;5124323;27;20230;-65
2024/01/22 09:40:17;;;;;;;10.03;7.17;;;4.50;99.90;;;;;;5130485;27;20203;-64
2024/01/22 09:42:49;;;;;;;11.47;7.37;;;4.50;99.90;;;;;;5131444;27;20200;-64
2024/01/22 09:45:17;;;;;;;8.30;6.70;;;4.70;99.90;;;;;;5131390;27;20758;-63
2024/01/22 09:47:46;;;;;;;8.47;7.23;;;4.60;99.90;;;;;;5131273;27;20198;-63
2024/01/22 09:50:16;;;;;;;12.23;8.50;;;4.60;99.90;;;;;;5130931;27;20216;-64
2024/01/22 09:52:49;;;;;;;10.10;7.47;;;4.60;99.90;;;;;;5131213;27;20191;-64
2024/01/22 09:55:17;;;;;;;8.77;7.23;;;4.60;99.90;;;;;;5130854;27;20240;-64
2024/01/22 09:57:48;;;;;;;12.77;7.47;;;4.60;99.90;;;;;;5130771;27;20302;-64
2024/01/22 10:00:18;;;;;;;9.33;7.07;;;4.60;99.90;;;;;;5130178;27;20198;-63
2024/01/22 10:02:48;;;;;;;7.33;6.63;;;4.70;99.90;;;;;;5130697;27;20744;-64
2024/01/22 10:05:16;;;;;;;9.47;7.30;;;4.80;99.90;;;;;;5130762;27;20205;-64
2024/01/22 10:07:47;;;;;;;11.70;7.63;;;4.90;99.90;;;;;;5123752;27;20229;-64
2024/01/22 10:10:22;;;;;;;8.33;6.97;;;4.90;99.90;;;;;;5129477;27;20187;-64
2024/01/22 10:13:03;;;;;;;8.53;7.60;;;4.90;99.90;;;;;;5130521;27;20189;-64
2024/01/22 10:15:36;;;;;;;9.43;7.40;;;5.10;99.90;;;;;;5130605;27;20538;-64
2024/01/22 10:18:09;;;;;;;10.13;7.30;;;5.10;99.90;;;;;;5130502;27;20598;-65
2024/01/22 10:20:42;;;;;;;11.57;7.60;;;5.10;99.90;;;;;;5130504;27;20559;-65
2024/01/22 10:23:13;;;;;;;11.10;6.63;;;5.20;99.90;;;;;;5130258;27;20199;-65
2024/01/22 10:25:42;;;;;;;12.53;8.07;;;5.10;99.90;;;;;;5130093;27;20196;-65
2024/01/22 10:28:12;;;;;;;9.03;6.63;;;5.20;99.90;;;;;;5130101;27;20199;-65
2024/01/22 10:30:41;;;;;;;11.33;7.47;;;5.30;99.90;;;;;;5130339;27;20201;-64
2024/01/22 10:33:14;;;;;;;10.60;7.20;;;5.50;99.90;;;;;;5130143;27;20552;-65
2024/01/22 10:35:44;;;;;;;6.33;5.63;;;5.30;99.90;;;;;;5111255;27;20203;-65
2024/01/22 10:38:16;;;;;;;10.50;7.17;;;5.30;99.90;;;;;;5129722;27;20230;-64
2024/01/22 10:40:46;;;;;;;9.23;7.43;;;5.30;99.90;;;;;;5129965;27;20926;-64
2024/01/22 10:43:24;;;;;;;12.83;7.43;;;5.40;99.90;;;;;;5130102;27;20195;-64
2024/01/22 10:45:53;;;;;;;7.23;6.33;;;5.50;99.90;;;;;;5110857;27;20203;-64
2024/01/22 10:48:23;;;;;;;9.00;6.57;;;5.30;99.90;;;;;;5129610;27;20208;-64
2024/01/22 10:50:59;;;;;;;8.83;6.53;;;5.30;99.90;;;;;;5129579;27;20206;-63
2024/01/22 10:53:29;;;;;;;8.37;6.33;;;5.40;99.90;;;;;;5129612;27;20677;-63
2024/01/22 10:56:03;;;;;;;10.00;6.80;;;5.40;99.90;;;;;;5129705;27;21018;-64
2024/01/22 10:58:40;;;;;;;7.67;6.07;;;5.40;99.90;;;;;;5129637;27;20202;-65
2024/01/22 11:01:14;;;;;;;10.30;6.47;;;5.40;99.90;;;;;;5129614;27;20198;-65
2024/01/22 11:03:46;;;;;;;7.00;6.03;;;5.60;99.90;;;;;;5129514;27;20199;-64
2024/01/22 11:06:19;;;;;;;8.07;6.27;;;5.60;99.90;;;;;;5129784;27;20294;-66
2024/01/22 11:08:51;;;;;;;8.80;5.53;;;5.70;99.90;;;;;;5129545;27;20409;-65
2024/01/22 11:11:20;;;;;;;7.30;6.03;;;5.80;99.90;;;;;;5129308;27;20199;-65
2024/01/22 11:13:52;;;;;;;7.77;6.20;;;5.70;99.90;;;;;;5129102;27;20191;-64
2024/01/22 11:16:21;;;;;;;6.97;5.57;;;5.80;99.90;;;;;;5129522;27;20214;-64
2024/01/22 11:18:57;;;;;;;7.43;5.63;;;5.90;99.90;;;;;;5129352;27;20294;-65
2024/01/22 11:21:33;;;;;;;9.00;6.27;;;5.80;99.90;;;;;;5129370;27;20281;-65
2024/01/22 11:24:10;;;;;;;6.80;5.70;;;5.90;99.90;;;;;;5129643;28;20270;-64
2024/01/22 11:26:43;;;;;;;8.33;5.00;;;5.80;99.90;;;;;;5129425;28;20194;-65
2024/01/22 11:29:17;;;;;;;7.47;5.97;;;5.90;99.90;;;;;;5129625;28;20995;-66
2024/01/22 11:31:50;;;;;;;7.00;5.67;;;5.80;99.90;;;;;;5129424;28;20810;-66
2024/01/22 11:34:48;;;;;;;6.13;5.40;;;5.80;99.90;;;;;;5129431;28;20248;-63
2024/01/22 11:37:35;;;;;;;8.10;6.13;;;5.70;99.90;;;;;;5127066;28;20231;-64
2024/01/22 11:40:07;;;;;;;7.97;5.57;;;5.80;99.90;;;;;;5129247;28;20199;-64
2024/01/22 11:42:36;;;;;;;5.70;5.10;;;5.80;99.90;;;;;;5129595;28;20661;-65
2024/01/22 11:45:13;;;;;;;6.80;5.53;;;5.70;99.90;;;;;;5129572;28;20207;-65
2024/01/22 11:47:42;;;;;;;6.00;5.37;;;5.80;99.90;;;;;;5129424;28;20192;-66
2024/01/22 11:50:11;;;;;;;8.60;5.60;;;5.90;99.90;;;;;;5129197;28;20210;-65
2024/01/22 11:52:39;;;;;;;13.10;8.60;;;5.70;99.90;;;;;;5129143;28;20199;-65
2024/01/22 11:55:09;;;;;;;7.10;6.07;;;5.80;99.90;;;;;;5129041;28;20199;-65
2024/01/22 11:57:47;;;;;;;6.77;6.07;;;5.80;99.90;;;;;;5129042;28;20225;-65
2024/01/22 12:00:20;;;;;;;10.23;6.43;;;5.80;99.90;;;;;;5129009;28;20206;-64
2024/01/22 12:02:50;;;;;;;7.23;6.50;;;5.70;99.90;;;;;;5129100;28;20202;-66
2024/01/22 12:05:19;;;;;;;9.27;6.30;;;5.80;99.90;;;;;;5128992;28;20247;-64
2024/01/22 12:07:49;;;;;;;6.70;5.20;;;5.90;99.90;;;;;;5121908;28;20210;-64
2024/01/22 12:10:23;;;;;;;7.00;6.30;;;5.80;99.90;;;;;;5128302;28;20223;-66
2024/01/22 12:12:56;;;;;;;6.73;5.93;;;5.80;99.90;;;;;;5128737;28;20218;-65
2024/01/22 12:15:26;;;;;;;5.43;5.00;;;5.80;99.90;;;;;;5128885;28;20282;-65
2024/01/22 12:17:55;;;;;;;7.33;4.93;;;5.70;99.90;;;;;;5128693;28;20635;-65
2024/01/22 12:20:26;;;;;;;6.60;5.37;;;5.70;99.90;;;;;;5128790;28;20191;-65
2024/01/22 12:22:58;;;;;;;6.20;5.57;;;5.80;99.90;;;;;;5128684;27;20203;-65
2024/01/22 12:25:36;;;;;;;6.40;5.43;;;5.90;99.90;;;;;;5132462;27;20198;-65
2024/01/22 12:28:07;;;;;;;7.17;5.63;;;5.90;99.90;;;;;;5132748;27;20238;-64
2024/01/22 12:30:36;;;;;;;6.20;5.17;;;5.90;99.90;;;;;;5132510;27;20198;-65
2024/01/22 12:33:05;;;;;;;6.30;5.17;;;5.80;99.90;;;;;;5132602;27;20747;-65
2024/01/22 12:35:42;;;;;;;5.80;4.83;;;5.90;99.90;;;;;;5132310;27;20966;-65
2024/01/22 12:38:11;;;;;;;5.23;4.67;;;6.00;99.90;;;;;;5131772;27;20244;-64
2024/01/22 12:40:44;;;;;;;5.03;4.53;;;6.10;99.90;;;;;;5132026;27;20286;-65
2024/01/22 12:43:12;;;;;;;5.13;4.63;;;6.00;99.90;;;;;;5132189;27;20253;-64
2024/01/22 12:45:41;;;;;;;6.07;4.87;;;6.00;99.90;;;;;;5132146;27;20213;-64
2024/01/22 12:48:09;;;;;;;6.80;5.70;;;6.00;99.90;;;;;;5132073;27;20332;-65
2024/01/22 12:50:37;;;;;;;5.10;4.70;;;6.00;99.90;;;;;;5132147;27;20957;-63
2024/01/22 12:53:06;;;;;;;7.00;4.63;;;6.10;99.90;;;;;;5131951;27;20608;-65
2024/01/22 12:55:34;;;;;;;6.00;5.37;;;6.00;99.90;;;;;;5131981;27;20275;-65
2024/01/22 12:58:04;;;;;;;6.10;4.77;;;6.10;99.90;;;;;;5131999;27;20222;-65
2024/01/22 13:00:33;;;;;;;7.77;5.13;;;6.10;99.90;;;;;;5132109;27;20218;-63
2024/01/22 13:03:01;;;;;;;8.17;5.00;;;6.10;99.90;;;;;;5131879;27;20199;-63